Time;durP1;ratioP1;P1;durP2;ratioP2;P2;SDS_P1;SDS_P2;PMS_P1;PMS_P2;Temp;Humidity;BMP_temperature;BMP_pressure;BME280_temperature;BME280_humidity;BME280_pressure;Samples;Min_cycle;Max_cycle;Signal;HPM_P1;HPM_P2
2023/10/20 00:01:00;;;;;;;21.07;9.23;;;;;;;11.26;89.84;94421.63;5070006;28;20198;-70
2023/10/20 00:03:26;;;;;;;14.70;8.00;;;;;;;11.24;90.08;94415.81;5070190;28;20289;-70
2023/10/20 00:05:51;;;;;;;13.07;7.23;;;;;;;11.22;90.33;94418.66;5069582;28;20190;-70
2023/10/20 00:08:17;;;;;;;11.93;7.63;;;;;;;11.20;90.60;94414.66;5069791;28;20174;-70
2023/10/20 00:10:42;;;;;;;11.07;8.07;;;;;;;11.23;90.45;94401.03;5070007;28;20563;-70
2023/10/20 00:13:08;;;;;;;11.43;8.50;;;;;;;11.19;90.28;94407.78;5069845;28;20647;-69
2023/10/20 00:15:34;;;;;;;16.07;9.27;;;;;;;11.18;90.22;94406.16;5069923;28;20641;-70
2023/10/20 00:18:01;;;;;;;13.30;8.27;;;;;;;11.04;90.27;94383.69;5069881;28;20181;-69
2023/10/20 00:20:26;;;;;;;14.10;8.47;;;;;;;11.14;90.19;94405.81;5069867;28;20205;-69
2023/10/20 00:22:51;;;;;;;12.67;7.73;;;;;;;11.12;90.36;94396.53;5069667;28;20190;-70
2023/10/20 00:25:17;;;;;;;11.27;8.47;;;;;;;11.14;90.44;94397.91;5069505;28;20181;-69
2023/10/20 00:27:42;;;;;;;13.23;7.70;;;;;;;11.13;90.21;94398.94;5069603;28;20182;-70
2023/10/20 00:30:09;;;;;;;11.50;7.90;;;;;;;11.13;90.68;94391.03;5069324;28;20686;-70
2023/10/20 00:32:36;;;;;;;15.10;8.43;;;;;;;11.00;90.78;94370.16;5069339;28;20178;-70
2023/10/20 00:35:05;;;;;;;13.13;7.67;;;;;;;11.13;90.50;94387.59;5069491;28;20178;-70
2023/10/20 00:37:31;;;;;;;12.77;8.20;;;;;;;11.09;90.82;94378.53;5069266;28;20267;-70
2023/10/20 00:39:59;;;;;;;15.13;8.83;;;;;;;11.06;90.75;94382.44;5069279;28;20228;-70
2023/10/20 00:42:25;;;;;;;16.93;9.30;;;;;;;10.93;91.20;94374.72;5069134;28;20235;-70
2023/10/20 00:44:51;;;;;;;17.57;9.43;;;;;;;10.91;91.20;94377.56;5069233;28;20178;-70
2023/10/20 00:47:17;;;;;;;16.53;9.73;;;;;;;10.92;91.59;94373.91;5068144;28;20414;-70
2023/10/20 00:49:45;;;;;;;11.10;7.77;;;;;;;10.97;91.37;94370.63;5068964;28;20409;-70
2023/10/20 00:52:13;;;;;;;11.60;7.77;;;;;;;11.03;90.85;94374.97;5068998;28;20182;-70
2023/10/20 00:54:40;;;;;;;15.40;8.60;;;;;;;11.04;90.56;94383.69;5068865;28;20265;-70
2023/10/20 00:57:05;;;;;;;16.37;8.87;;;;;;;11.06;90.37;94382.44;5068798;28;20222;-70
2023/10/20 00:59:31;;;;;;;13.23;8.00;;;;;;;11.03;90.34;94382.06;5069079;28;20226;-70
2023/10/20 01:01:56;;;;;;;14.17;9.27;;;;;;;11.02;90.34;94383.09;5069071;28;20174;-70
2023/10/20 01:04:22;;;;;;;12.70;8.90;;;;;;;10.98;90.41;94378.28;5068972;28;20175;-70
2023/10/20 01:06:49;;;;;;;14.17;8.33;;;;;;;10.96;90.19;94377.72;5068987;28;20216;-70
2023/10/20 01:09:27;;;;;;;13.23;7.57;;;;;;;10.94;90.53;94369.22;5068901;28;20574;-70
2023/10/20 01:11:53;;;;;;;14.80;8.07;;;;;;;10.86;90.81;94369.56;5069108;28;20189;-70
2023/10/20 01:14:19;;;;;;;13.87;9.40;;;;;;;10.85;90.57;94362.69;5068683;28;20178;-70
2023/10/20 01:16:44;;;;;;;13.43;8.67;;;;;;;10.91;90.59;94379.41;5068776;28;20249;-70
2023/10/20 01:19:10;;;;;;;11.13;7.93;;;;;;;10.89;90.92;94368.31;5068039;28;20287;-70
2023/10/20 01:21:36;;;;;;;16.37;8.40;;;;;;;10.83;91.36;94370.00;5068776;28;20213;-70
2023/10/20 01:24:04;;;;;;;12.17;8.13;;;;;;;10.84;91.04;94365.53;5068879;28;20299;-70
2023/10/20 01:26:30;;;;;;;14.63;9.80;;;;;;;10.80;91.16;94357.28;5067686;28;20442;-70
2023/10/20 01:28:55;;;;;;;17.37;8.53;;;;;;;10.80;91.33;94362.56;5068783;28;20209;-70
2023/10/20 01:31:22;;;;;;;13.67;8.37;;;;;;;10.80;90.81;94354.66;5068570;28;20170;-70
2023/10/20 01:33:48;;;;;;;11.53;8.23;;;;;;;10.73;90.59;94350.50;5068709;28;20223;-70
2023/10/20 01:36:14;;;;;;;13.97;8.60;;;;;;;10.74;90.62;94358.16;5068495;28;20646;-70
2023/10/20 01:38:39;;;;;;;10.90;7.37;;;;;;;10.59;90.58;94331.44;5067270;28;20563;-70
2023/10/20 01:41:06;;;;;;;10.87;7.07;;;;;;;10.67;90.59;94341.66;5048637;28;20742;-70
2023/10/20 01:43:33;;;;;;;12.60;8.00;;;;;;;10.38;90.20;94305.66;5048603;28;20261;-70
2023/10/20 01:45:58;;;;;;;12.90;7.83;;;;;;;10.65;90.57;94333.19;5048270;28;20190;-70
2023/10/20 01:48:24;;;;;;;11.27;8.53;;;;;;;10.64;90.58;94342.09;5047203;28;20179;-70
2023/10/20 01:50:49;;;;;;;12.50;7.93;;;;;;;10.63;90.76;94344.97;5048581;28;20198;-70
2023/10/20 01:53:15;;;;;;;10.53;7.37;;;;;;;10.59;90.69;94348.03;5048430;28;20186;-70
2023/10/20 01:55:40;;;;;;;12.13;8.27;;;;;;;10.55;90.65;94346.88;5048601;28;20555;-70
2023/10/20 01:58:06;;;;;;;17.47;9.23;;;;;;;10.47;90.83;94349.00;5048704;28;20879;-70
2023/10/20 02:00:31;;;;;;;15.00;8.73;;;;;;;10.35;92.00;94346.34;5047848;28;20457;-70
2023/10/20 02:02:57;;;;;;;12.27;7.70;;;;;;;10.36;92.45;94360.31;5048754;28;20560;-70
2023/10/20 02:05:22;;;;;;;13.43;7.57;;;;;;;10.38;92.18;94353.78;5048618;28;20585;-70
2023/10/20 02:07:49;;;;;;;15.80;8.87;;;;;;;10.31;92.39;94354.88;5048234;28;20841;-70
2023/10/20 02:10:15;;;;;;;13.27;8.77;;;;;;;10.29;93.05;94356.97;5048571;28;20270;-70
2023/10/20 02:12:41;;;;;;;16.37;9.30;;;;;;;10.34;92.62;94349.19;5048821;28;20614;-70
2023/10/20 02:15:07;;;;;;;14.33;9.00;;;;;;;10.28;92.49;94347.47;5061461;28;20179;-70
2023/10/20 02:17:34;;;;;;;12.00;8.67;;;;;;;10.35;92.53;94337.66;5068479;28;20258;-70
2023/10/20 02:20:00;;;;;;;16.23;8.60;;;;;;;10.30;92.51;94327.78;5068628;28;20206;-70
2023/10/20 02:22:25;;;;;;;11.63;7.77;;;;;;;10.26;92.38;94342.41;5068502;28;20244;-70
2023/10/20 02:24:52;;;;;;;9.63;7.60;;;;;;;10.24;92.02;94352.34;5068515;28;20187;-70
2023/10/20 02:27:18;;;;;;;10.90;7.60;;;;;;;10.21;92.06;94347.50;5068470;28;20600;-70
2023/10/20 02:29:44;;;;;;;16.80;7.80;;;;;;;10.24;91.84;94352.34;5069501;28;20175;-70
2023/10/20 02:32:09;;;;;;;12.43;8.97;;;;;;;10.27;91.85;94348.47;5070307;28;20178;-70
2023/10/20 02:34:35;;;;;;;13.33;9.33;;;;;;;10.19;91.94;94344.31;5052022;28;20183;-70
2023/10/20 02:37:00;;;;;;;13.73;9.47;;;;;;;10.21;91.85;94343.06;5052153;28;20187;-70
2023/10/20 02:39:26;;;;;;;15.63;9.67;;;;;;;10.16;91.85;94337.66;5052011;28;20185;-70
2023/10/20 02:41:52;;;;;;;14.33;9.30;;;;;;;10.12;91.96;94354.06;5052009;28;20182;-70
2023/10/20 02:44:17;;;;;;;15.07;8.90;;;;;;;10.09;92.36;94352.69;5053196;28;20197;-70
2023/10/20 02:46:43;;;;;;;15.57;10.90;;;;;;;10.03;92.25;94348.28;5071930;28;20190;-69
2023/10/20 02:49:09;;;;;;;16.77;9.63;;;;;;;10.06;92.44;94355.75;5071863;28;20745;-69
2023/10/20 02:51:34;;;;;;;15.67;9.67;;;;;;;10.00;92.40;94346.13;5071879;28;20182;-69
2023/10/20 02:54:00;;;;;;;13.73;9.40;;;;;;;10.04;92.20;94347.28;5071780;28;20261;-69
2023/10/20 02:56:26;;;;;;;17.70;10.57;;;;;;;10.02;91.33;94349.34;5071427;28;20623;-70
2023/10/20 02:58:51;;;;;;;18.70;10.43;;;;;;;10.00;91.65;94345.31;5071705;28;20175;-69
2023/10/20 03:01:18;;;;;;;14.97;9.77;;;;;;;9.99;91.44;94344.50;5071568;28;20198;-69
2023/10/20 03:03:44;;;;;;;20.30;13.20;;;;;;;9.90;91.79;94335.31;5070611;28;20413;-69
2023/10/20 03:06:10;;;;;;;17.83;10.67;;;;;;;9.84;92.24;94320.44;5071437;28;20436;-69
2023/10/20 03:08:37;;;;;;;23.83;13.10;;;;;;;9.94;91.94;94339.13;5070782;28;20637;-69
2023/10/20 03:11:04;;;;;;;16.77;10.90;;;;;;;9.91;92.35;94333.50;5070846;28;20255;-69
2023/10/20 03:13:30;;;;;;;22.70;14.20;;;;;;;9.83;91.80;94319.63;5070862;28;20189;-69
2023/10/20 03:15:56;;;;;;;18.87;10.57;;;;;;;9.86;91.44;94338.63;5071189;28;20180;-69
2023/10/20 03:18:23;;;;;;;17.77;12.43;;;;;;;9.89;91.77;94338.16;5071237;28;20185;-69
2023/10/20 03:20:49;;;;;;;19.60;11.87;;;;;;;9.82;91.11;94340.88;5071121;28;20198;-69
2023/10/20 03:23:15;;;;;;;18.43;11.57;;;;;;;9.79;91.59;94331.59;5070910;28;20232;-69
2023/10/20 03:25:41;;;;;;;22.93;12.17;;;;;;;9.80;91.72;94329.75;5070859;28;20182;-69
2023/10/20 03:28:07;;;;;;;22.50;11.97;;;;;;;9.77;91.46;94333.63;5051607;28;20179;-69
2023/10/20 03:30:41;;;;;;;24.90;12.43;;;;;;;9.73;91.46;94331.66;5050707;28;20654;-69
2023/10/20 03:33:08;;;;;;;21.93;13.93;;;;;;;9.70;91.48;94337.34;5050758;28;20264;-70
2023/10/20 03:35:33;;;;;;;22.67;12.83;;;;;;;9.70;91.77;94339.97;5050948;28;20179;-69
2023/10/20 03:38:00;;;;;;;23.90;13.63;;;;;;;9.70;91.57;94334.72;5050825;28;20178;-69
2023/10/20 03:40:36;;;;;;;23.17;14.60;;;;;;;9.72;91.77;94330.03;5070454;28;20194;-69
2023/10/20 03:43:06;;;;;;;25.83;14.10;;;;;;;9.67;91.47;94328.09;5070453;28;20174;-69
2023/10/20 03:45:40;;;;;;;33.27;16.43;;;;;;;9.66;91.73;94328.31;5070826;28;20275;-69
2023/10/20 03:48:08;;;;;;;41.63;19.60;;;;;;;9.64;92.55;94312.75;5070775;28;20232;-69
2023/10/20 03:50:36;;;;;;;43.77;20.00;;;;;;;9.60;92.90;94308.94;5070506;28;20178;-69
2023/10/20 03:53:02;;;;;;;40.07;20.17;;;;;;;9.57;93.00;94311.22;5070472;28;20653;-69
2023/10/20 03:55:27;;;;;;;35.83;20.37;;;;;;;9.57;93.19;94308.59;5070174;28;20248;-68
2023/10/20 03:57:52;;;;;;;38.37;21.03;;;;;;;9.59;92.76;94304.72;5069929;28;20347;-68
2023/10/20 04:00:18;;;;;;;42.13;21.60;;;;;;;9.60;92.58;94305.53;5069913;28;20685;-68
2023/10/20 04:02:46;;;;;;;45.90;21.33;;;;;;;9.60;92.44;94308.94;5069875;28;20183;-69
2023/10/20 04:05:16;;;;;;;36.33;21.53;;;;;;;9.61;92.49;94309.75;5070082;28;20566;-68
2023/10/20 04:07:42;;;;;;;45.13;23.10;;;;;;;9.56;92.00;94301.72;5070205;28;20271;-68
2023/10/20 04:10:07;;;;;;;43.40;21.97;;;;;;;9.56;91.98;94304.34;5069946;28;20265;-68
2023/10/20 04:12:33;;;;;;;42.40;24.50;;;;;;;9.48;91.75;94304.63;5069701;28;20185;-68
2023/10/20 04:14:58;;;;;;;40.97;22.60;;;;;;;9.42;92.60;94303.69;5069928;28;20186;-68
2023/10/20 04:17:24;;;;;;;43.07;21.03;;;;;;;9.42;92.47;94307.13;5060384;28;20258;-68
2023/10/20 04:19:49;;;;;;;47.27;23.30;;;;;;;9.43;92.41;94313.16;5050028;28;20555;-68
2023/10/20 04:22:16;;;;;;;38.40;22.57;;;;;;;9.34;92.21;94315.25;5048850;28;20642;-68
2023/10/20 04:24:44;;;;;;;37.97;21.27;;;;;;;9.41;92.25;94329.16;5048485;28;20261;-68
2023/10/20 04:27:21;;;;;;;35.77;22.13;;;;;;;9.43;92.22;94334.97;5049820;28;20179;-69
2023/10/20 04:44:57;;;;;;;51.00;24.13;;;;;;;9.26;92.80;94320.78;5049332;28;20561;-70
2023/10/20 04:49:54;;;;;;;48.73;24.70;;;;;;;9.27;92.77;94311.88;5049514;28;20178;-70
2023/10/20 04:52:07;;;;;;;55.70;25.30;;;;;;;9.27;92.68;94318.97;5049478;28;20213;-69
2023/10/20 04:54:50;;;;;;;53.40;26.47;;;;;;;9.20;92.55;94307.72;5048240;28;20187;-69
2023/10/20 04:57:37;;;;;;;58.50;28.50;;;;;;;9.32;92.34;94311.25;5049075;28;20223;-69
2023/10/20 05:02:40;;;;;;;53.73;31.90;;;;;;;9.35;93.07;94321.31;5051042;28;20742;-69
2023/10/20 05:05:15;;;;;;;57.13;28.13;;;;;;;9.41;92.97;94310.75;5047865;28;20179;-70
2023/10/20 05:07:49;;;;;;;63.40;30.20;;;;;;;9.47;92.25;94319.59;5048591;28;20174;-70
2023/10/20 05:10:14;;;;;;;67.37;30.73;;;;;;;9.43;92.56;94327.09;5049268;28;20306;-70
2023/10/20 05:12:40;;;;;;;75.20;34.50;;;;;;;9.50;92.95;94324.41;5049054;28;20297;-71
2023/10/20 05:15:07;;;;;;;59.27;30.87;;;;;;;9.58;92.43;94328.59;5048729;28;20257;-71
2023/10/20 05:17:34;;;;;;;49.20;26.97;;;;;;;9.64;92.77;94325.06;5048875;28;20673;-71
2023/10/20 05:19:59;;;;;;;66.80;33.10;;;;;;;9.77;92.60;94324.97;5048750;28;20728;-71
2023/10/20 05:22:26;;;;;;;57.47;30.67;;;;;;;9.90;91.99;94324.00;5047746;28;20178;-71
2023/10/20 05:24:51;;;;;;;57.57;29.07;;;;;;;10.05;91.42;94342.81;5047208;28;20190;-70
2023/10/20 05:27:17;;;;;;;49.47;24.03;;;;;;;10.15;90.65;94353.63;5048595;28;20183;-71
2023/10/20 05:29:42;;;;;;;34.77;19.20;;;;;;;10.27;90.68;94356.38;5048520;28;20225;-71
2023/10/20 05:32:07;;;;;;;50.27;23.83;;;;;;;10.41;90.60;94360.44;5047086;28;20516;-70
2023/10/20 05:34:34;;;;;;;43.03;22.20;;;;;;;10.51;89.70;94358.88;5048581;28;20187;-69
2023/10/20 05:37:00;;;;;;;43.63;22.73;;;;;;;10.63;89.54;94366.84;5048228;28;20221;-70
2023/10/20 05:39:25;;;;;;;34.67;21.63;;;;;;;10.89;88.89;94377.00;5048552;28;20206;-70
2023/10/20 05:41:51;;;;;;;43.40;20.10;;;;;;;11.09;88.69;94353.00;5048736;28;20269;-70
2023/10/20 05:44:22;;;;;;;28.13;16.50;;;;;;;11.59;88.32;94374.47;5064838;28;20189;-70
2023/10/20 05:46:47;;;;;;;37.83;17.27;;;;;;;11.91;87.32;94376.81;5068582;28;20638;-70
2023/10/20 05:49:13;;;;;;;42.37;18.50;;;;;;;12.11;86.26;94374.59;5058696;28;20183;-70
2023/10/20 05:51:38;;;;;;;35.33;19.73;;;;;;;12.25;85.25;94369.88;5048685;28;20258;-70
2023/10/20 05:54:04;;;;;;;39.53;20.97;;;;;;;12.23;84.48;94370.13;5046488;28;20186;-70
2023/10/20 05:56:30;;;;;;;37.83;20.10;;;;;;;12.21;84.76;94358.19;5059599;28;20217;-70
2023/10/20 05:58:55;;;;;;;37.37;19.73;;;;;;;12.04;84.66;94337.00;5068471;28;20265;-70
2023/10/20 06:01:21;;;;;;;32.00;16.47;;;;;;;12.16;84.81;94348.34;5068240;28;20236;-70
2023/10/20 06:03:46;;;;;;;36.77;18.77;;;;;;;12.25;85.16;94360.13;5066700;28;20175;-69
2023/10/20 06:06:12;;;;;;;32.30;18.13;;;;;;;12.39;85.07;94358.81;5047601;28;20216;-70
2023/10/20 06:08:37;;;;;;;40.07;17.03;;;;;;;12.64;84.44;94379.63;5055299;28;20259;-69
2023/10/20 06:11:04;;;;;;;39.83;16.57;;;;;;;12.97;84.89;94365.75;5050660;28;20692;-70
2023/10/20 06:13:35;;;;;;;37.90;15.97;;;;;;;14.08;83.19;94376.50;5053329;28;20201;-70
2023/10/20 06:16:10;;;;;;;27.97;13.70;;;;;;;16.00;78.44;94385.69;5065656;28;20170;-69
2023/10/20 06:18:40;;;;;;;22.15;10.70;;;;;;;17.83;70.83;94393.22;5061235;28;20205;-70
2023/10/20 06:21:10;;;;;;;37.25;13.38;;;;;;;18.82;65.08;94397.03;5060861;28;20237;-70
2023/10/20 06:23:36;;;;;;;25.05;11.88;;;;;;;19.53;62.03;94388.69;5055674;28;20348;-68
2023/10/20 06:26:01;;;;;;;19.80;10.13;;;;;;;20.12;58.81;94371.63;5052927;28;20298;-68
2023/10/20 06:28:27;;;;;;;15.82;9.65;;;;;;;21.19;56.88;94392.69;5052038;28;20191;-68
2023/10/20 06:30:53;;;;;;;24.55;10.50;;;;;;;22.35;53.33;94374.78;5057729;28;20169;-68
2023/10/20 06:33:19;;;;;;;19.13;10.60;;;;;;;23.69;50.54;94369.94;5061072;28;20241;-69
2023/10/20 06:35:51;;;;;;;24.55;10.07;;;;;;;25.11;47.71;94368.94;5048290;28;20171;-69
2023/10/20 06:38:37;;;;;;;16.73;10.88;;;;;;;25.70;43.69;94364.75;5051927;28;20202;-70
2023/10/20 06:41:04;;;;;;;18.65;9.10;;;;;;;26.13;44.00;94370.09;5058309;28;20293;-69
2023/10/20 06:43:30;;;;;;;22.95;9.90;;;;;;;27.06;42.07;94371.28;5058952;28;20647;-68
2023/10/20 06:46:00;;;;;;;17.95;9.48;;;;;;;27.71;40.95;94370.72;5050108;28;20167;-68
2023/10/20 06:48:28;;;;;;;21.92;9.55;;;;;;;28.23;39.49;94373.00;5067301;28;20182;-68
2023/10/20 06:50:54;;;;;;;18.27;9.52;;;;;;;28.56;37.73;94379.19;5050603;28;20187;-67
2023/10/20 06:53:20;;;;;;;22.73;9.70;;;;;;;28.70;37.72;94376.97;5056359;28;20182;-68
2023/10/20 06:55:51;;;;;;;18.95;11.10;;;;;;;28.97;37.22;94374.75;5062912;28;20170;-68
2023/10/20 06:58:17;;;;;;;27.98;9.60;;;;;;;29.22;36.79;94368.22;5052473;28;20230;-67
2023/10/20 07:00:46;;;;;;;15.48;10.00;;;;;;;29.04;36.20;94373.06;5049818;28;20221;-70
2023/10/20 07:03:13;;;;;;;15.75;10.02;;;;;;;28.09;37.68;94365.16;5050782;28;20221;-68
2023/10/20 07:05:42;;;;;;;15.73;9.32;;;;;;;26.61;39.56;94361.78;5057965;28;20247;-70
2023/10/20 07:08:10;;;;;;;15.18;10.07;;;;;;;25.63;41.94;94364.44;5053762;28;20273;-68
2023/10/20 07:10:39;;;;;;;16.10;9.52;;;;;;;24.65;44.61;94364.81;5065177;28;20186;-69
2023/10/20 07:13:06;;;;;;;21.92;9.77;;;;;;;24.47;45.41;94360.47;5048767;28;20731;-69
2023/10/20 07:15:33;;;;;;;16.10;10.32;;;;;;;24.12;46.15;94366.75;5060161;28;20174;-69
2023/10/20 07:17:59;;;;;;;18.15;9.75;;;;;;;23.39;47.82;94360.63;5053527;28;20261;-69
2023/10/20 07:20:25;;;;;;;12.40;9.80;;;;;;;22.80;49.10;94353.56;5065904;28;20229;-69
2023/10/20 07:22:51;;;;;;;17.08;10.07;;;;;;;22.11;50.81;94350.81;5049633;28;20207;-69
2023/10/20 07:25:17;;;;;;;19.77;11.27;;;;;;;21.33;52.92;94351.50;5050549;28;20238;-69
2023/10/20 07:27:43;;;;;;;17.45;10.57;;;;;;;20.93;54.40;94342.09;5049531;28;20179;-68
2023/10/20 07:30:10;;;;;;;14.63;8.90;;;;;;;20.64;55.20;94355.59;5051156;28;20173;-70
2023/10/20 07:32:36;;;;;;;15.13;8.98;;;;;;;20.30;56.74;94360.22;5064662;28;20186;-70
2023/10/20 07:35:03;;;;;;;14.52;9.60;;;;;;;20.15;57.76;94363.81;5062160;28;20171;-70
2023/10/20 07:37:29;;;;;;;16.33;9.90;;;;;;;20.19;57.70;94364.84;5051187;28;20198;-70
2023/10/20 07:39:54;;;;;;;17.10;10.25;;;;;;;20.05;57.59;94358.59;5049862;28;20257;-70
2023/10/20 07:42:20;;;;;;;18.92;10.32;;;;;;;20.00;58.37;94360.50;5066527;28;20186;-69
2023/10/20 07:44:46;;;;;;;20.20;11.20;;;;;;;19.79;58.64;94352.69;5064221;28;20175;-70
2023/10/20 07:47:12;;;;;;;22.67;11.93;;;;;;;19.89;59.18;94359.81;5055598;28;20205;-69
2023/10/20 07:49:38;;;;;;;17.55;10.35;;;;;;;19.45;59.37;94349.19;5061284;28;20582;-69
2023/10/20 07:52:03;;;;;;;17.73;10.00;;;;;;;19.21;60.59;94365.88;5048585;28;20266;-69
2023/10/20 07:54:32;;;;;;;21.70;11.32;;;;;;;19.25;60.43;94357.31;5055345;28;20654;-68
2023/10/20 07:56:58;;;;;;;17.33;9.82;;;;;;;19.26;60.86;94364.25;5058612;28;20242;-69
2023/10/20 07:59:24;;;;;;;16.05;9.43;;;;;;;19.61;60.41;94352.56;5052321;28;20187;-69
2023/10/20 08:01:50;;;;;;;16.67;8.82;;;;;;;20.07;59.37;94366.31;5048352;28;20178;-69
2023/10/20 08:04:16;;;;;;;18.95;10.63;;;;;;;20.32;58.73;94356.16;5049102;28;20190;-68
2023/10/20 08:06:42;;;;;;;19.75;10.77;;;;;;;20.48;58.15;94362.19;5049407;28;20248;-68
2023/10/20 08:09:12;;;;;;;12.77;8.63;;;;;;;20.42;57.10;94365.97;5049256;28;20642;-68
2023/10/20 08:11:39;;;;;;;15.60;8.63;;;;;;;19.83;58.56;94353.69;5049162;28;20670;-68
2023/10/20 08:14:05;;;;;;;11.10;6.28;;;;;;;19.95;59.08;94361.34;5049465;28;20237;-69
2023/10/20 08:16:30;;;;;;;20.48;9.38;;;;;;;19.94;58.40;94359.75;5049446;28;20187;-68
2023/10/20 08:18:56;;;;;;;16.25;9.07;;;;;;;20.07;58.34;94364.44;5049088;28;20191;-68
2023/10/20 08:21:29;;;;;;;14.02;7.88;;;;;;;20.14;57.96;94366.81;5045820;28;20194;-68
2023/10/20 08:23:55;;;;;;;14.90;9.23;;;;;;;20.21;58.62;94369.94;5048268;28;20169;-68
2023/10/20 08:26:21;;;;;;;13.07;8.73;;;;;;;20.45;58.27;94372.66;5048478;28;20175;-68
2023/10/20 08:28:49;;;;;;;18.50;8.02;;;;;;;20.59;56.69;94369.00;5055355;28;20239;-69
2023/10/20 08:31:16;;;;;;;11.57;7.68;;;;;;;20.68;56.87;94361.94;5056699;28;20198;-69
2023/10/20 08:33:42;;;;;;;12.73;9.63;;;;;;;20.70;56.25;94353.63;5048965;28;20185;-68
2023/10/20 08:36:15;;;;;;;17.85;8.93;;;;;;;20.87;56.87;94342.47;5064102;28;20167;-69
2023/10/20 08:38:45;;;;;;;15.70;8.48;;;;;;;21.15;55.25;94336.19;5055200;28;20289;-69
2023/10/20 08:41:17;;;;;;;40.75;9.13;;;;;;;21.31;54.44;94345.63;5066431;28;20206;-69
2023/10/20 08:43:44;;;;;;;13.70;7.57;;;;;;;21.28;54.57;94343.53;5052092;28;20183;-69
2023/10/20 08:46:14;;;;;;;15.15;6.68;;;;;;;21.52;55.22;94342.66;5061707;28;20265;-69
2023/10/20 08:48:45;;;;;;;18.02;7.82;;;;;;;21.89;54.80;94337.22;5061284;28;20175;-69
2023/10/20 08:51:17;;;;;;;15.93;6.53;;;;;;;22.14;53.16;94346.75;5054535;28;20265;-70
2023/10/20 08:53:42;;;;;;;12.68;6.90;;;;;;;22.34;52.97;94341.00;5048774;28;20191;-70
2023/10/20 08:56:10;;;;;;;15.40;6.40;;;;;;;22.57;53.11;94334.66;5052827;28;20238;-70
2023/10/20 08:58:36;;;;;;;17.42;6.65;;;;;;;22.64;51.78;94328.09;5059891;28;20189;-70
2023/10/20 09:01:03;;;;;;;15.18;6.05;;;;;;;22.49;51.71;94340.72;5047304;28;20210;-70
2023/10/20 09:03:39;;;;;;;14.77;5.82;;;;;;;22.45;52.39;94334.34;5048961;28;20177;-70
2023/10/20 09:06:06;;;;;;;29.65;8.60;;;;;;;22.33;51.28;94334.03;5047912;28;20167;-70
2023/10/20 09:08:33;;;;;;;19.27;7.10;;;;;;;22.23;52.72;94338.81;5049151;28;20167;-70
2023/10/20 09:10:58;;;;;;;14.98;6.60;;;;;;;21.92;52.53;94336.63;5046570;28;20171;-70
2023/10/20 09:13:35;;;;;;;9.30;6.20;;;;;;;21.77;52.95;94336.91;5048598;28;20508;-71
2023/10/20 09:16:03;;;;;;;14.82;7.40;;;;;;;21.57;53.61;94329.16;5047977;28;20175;-70
2023/10/20 09:18:31;;;;;;;13.93;6.38;;;;;;;21.00;54.78;94294.38;5046874;28;20499;-70
2023/10/20 09:21:07;;;;;;;8.70;5.72;;;;;;;20.93;55.62;94311.88;5048619;28;20288;-71
2023/10/20 09:23:32;;;;;;;13.05;7.10;;;;;;;20.69;55.72;94319.94;5048015;28;20657;-71
2023/10/20 09:25:58;;;;;;;12.70;6.57;;;;;;;20.58;56.47;94315.81;5056291;28;20916;-70
2023/10/20 09:28:24;;;;;;;13.38;6.82;;;;;;;20.34;57.52;94302.44;5069024;28;20534;-70
2023/10/20 09:30:50;;;;;;;17.20;6.95;;;;;;;20.17;57.62;94310.09;5069520;28;20643;-70
2023/10/20 09:33:15;;;;;;;17.13;7.03;;;;;;;20.00;58.13;94291.81;5068231;28;20182;-70
2023/10/20 09:35:42;;;;;;;13.05;7.60;;;;;;;19.66;58.82;94286.53;5068028;28;20252;-70
2023/10/20 09:38:12;;;;;;;11.90;6.78;;;;;;;19.61;59.73;94283.13;5067097;28;20269;-70
2023/10/20 09:40:41;;;;;;;15.70;7.60;;;;;;;19.53;59.91;94284.53;5068592;28;20701;-70
2023/10/20 09:43:18;;;;;;;13.23;6.82;;;;;;;19.59;59.98;94275.41;5070561;28;20170;-70
2023/10/20 09:45:51;;;;;;;21.95;7.78;;;;;;;19.75;61.41;94281.38;5070163;28;20589;-70
2023/10/20 09:48:19;;;;;;;19.20;7.60;;;;;;;19.84;59.42;94280.50;5070010;28;20186;-70
2023/10/20 09:50:46;;;;;;;16.65;6.85;;;;;;;19.96;59.32;94282.78;5070230;28;20549;-70
2023/10/20 09:53:15;;;;;;;13.88;7.32;;;;;;;19.98;59.41;94277.16;5069725;28;20182;-70
2023/10/20 09:55:43;;;;;;;21.23;7.45;;;;;;;20.02;58.89;94273.63;5051031;28;20232;-70
2023/10/20 09:58:09;;;;;;;22.20;9.20;;;;;;;20.00;59.40;94272.31;5051390;28;20219;-71
2023/10/20 10:00:35;;;;;;;21.60;8.65;;;;;;;20.02;58.96;94265.63;5051587;28;20274;-71
2023/10/20 10:03:00;;;;;;;13.18;7.53;;;;;;;20.05;59.29;94261.59;5051397;28;20187;-70
2023/10/20 10:05:29;;;;;;;16.20;7.10;;;;;;;20.08;58.86;94251.09;5051677;28;20179;-70
2023/10/20 10:08:08;;;;;;;15.70;7.72;;;;;;;20.15;58.62;94248.13;5051267;28;20182;-70
2023/10/20 10:10:35;;;;;;;18.02;7.82;;;;;;;20.26;58.67;94253.03;5052113;28;20185;-70
2023/10/20 10:13:04;;;;;;;13.68;7.53;;;;;;;20.04;58.89;94244.75;5050326;28;20175;-70
2023/10/20 10:15:46;;;;;;;12.55;7.05;;;;;;;20.01;58.71;94249.88;5051723;28;20646;-70
2023/10/20 10:18:17;;;;;;;15.57;7.90;;;;;;;20.00;58.99;94241.06;5051487;28;20693;-70
2023/10/20 10:20:47;;;;;;;11.68;7.28;;;;;;;19.96;59.90;94246.19;5050485;28;20277;-70
2023/10/20 10:23:17;;;;;;;16.02;6.72;;;;;;;19.90;59.79;94239.28;5051218;28;20375;-70
2023/10/20 10:25:44;;;;;;;15.40;7.63;;;;;;;19.91;60.12;94245.41;5051369;28;20179;-71
2023/10/20 10:28:14;;;;;;;16.10;8.43;;;;;;;19.82;59.58;94226.53;5051624;28;20179;-70
2023/10/20 10:30:42;;;;;;;14.82;6.65;;;;;;;19.83;60.12;94238.84;5049944;28;20171;-71
2023/10/20 10:33:11;;;;;;;14.48;6.57;;;;;;;19.94;59.85;94223.50;5068279;28;20170;-70
2023/10/20 10:35:40;;;;;;;10.93;6.13;;;;;;;19.99;59.67;94228.75;5070697;28;20186;-70
2023/10/20 10:38:18;;;;;;;11.32;5.28;;;;;;;20.10;59.59;94224.91;5071089;28;20634;-70
2023/10/20 10:40:47;;;;;;;32.60;7.13;;;;;;;20.33;58.99;94226.75;5070601;28;20233;-70
2023/10/20 10:43:18;;;;;;;7.72;4.75;;;;;;;20.45;57.82;94213.00;5070511;28;20186;-70
2023/10/20 10:45:44;;;;;;;19.45;6.15;;;;;;;20.65;56.76;94211.94;5070799;28;20220;-71
2023/10/20 10:48:11;;;;;;;12.82;4.95;;;;;;;20.78;57.47;94215.75;5071000;28;20182;-70
2023/10/20 10:50:39;;;;;;;9.20;4.72;;;;;;;20.93;56.47;94212.88;5070629;28;20630;-70
2023/10/20 10:53:07;;;;;;;11.82;3.88;;;;;;;21.15;56.05;94221.06;5070308;28;20657;-70
2023/10/20 10:55:36;;;;;;;12.45;4.10;;;;;;;21.14;55.19;94190.03;5050746;28;20206;-71
2023/10/20 10:58:06;;;;;;;8.43;4.25;;;;;;;21.38;54.25;94204.13;5051674;28;20314;-71
2023/10/20 11:00:32;;;;;;;6.50;3.20;;;;;;;21.42;53.43;94207.81;5050995;28;20670;-70
2023/10/20 11:02:58;;;;;;;11.85;3.70;;;;;;;21.37;52.97;94215.13;5050543;28;20179;-70
2023/10/20 11:05:25;;;;;;;15.65;4.45;;;;;;;21.37;53.90;94205.19;5050681;28;20171;-70
2023/10/20 11:07:57;;;;;;;7.05;3.67;;;;;;;21.49;54.02;94201.25;5049209;28;20190;-71
2023/10/20 11:10:28;;;;;;;17.67;4.00;;;;;;;21.54;52.92;94201.16;5050142;28;20171;-70
2023/10/20 11:12:55;;;;;;;10.57;3.00;;;;;;;21.67;52.42;94206.56;5050251;28;20175;-71
2023/10/20 11:15:21;;;;;;;13.98;3.85;;;;;;;21.72;52.92;94195.75;5050473;28;20179;-70
2023/10/20 11:17:48;;;;;;;6.07;3.40;;;;;;;21.79;53.52;94200.72;5050476;28;20246;-70
2023/10/20 11:20:18;;;;;;;6.57;3.80;;;;;;;21.88;52.52;94169.44;5050322;28;20301;-70
2023/10/20 11:22:44;;;;;;;13.43;4.55;;;;;;;22.16;51.93;94179.09;5048896;28;20195;-70
2023/10/20 11:25:19;;;;;;;9.48;3.50;;;;;;;22.33;51.35;94181.16;5050308;28;20278;-70
2023/10/20 11:27:51;;;;;;;11.60;4.22;;;;;;;22.42;50.39;94183.94;5050443;28;20297;-70
2023/10/20 11:30:16;;;;;;;5.03;3.33;;;;;;;22.43;50.24;94169.41;5050352;28;20175;-70
2023/10/20 11:32:42;;;;;;;13.82;4.88;;;;;;;22.47;49.60;94187.31;5050416;28;20186;-70
2023/10/20 11:35:07;;;;;;;11.60;3.35;;;;;;;22.50;50.28;94175.16;5050310;28;20175;-70
2023/10/20 11:37:35;;;;;;;6.50;2.78;;;;;;;22.61;49.79;94173.84;5050087;28;20676;-71
2023/10/20 11:40:01;;;;;;;13.93;3.22;;;;;;;22.68;49.80;94160.81;5050684;28;20212;-70
2023/10/20 11:42:26;;;;;;;8.95;3.53;;;;;;;22.83;49.35;94171.22;5050783;28;20924;-70
2023/10/20 11:44:52;;;;;;;18.33;3.88;;;;;;;23.00;48.02;94170.59;5050757;28;20168;-70